Impacts TAF Board INFO
FOR SITUATIONAL AWARENESS. NOT TO BE USED FOR FLIGHT PLANNING PURPOSES.
IDs:

KSAN - San Diego Intl Arpt, CA, US

Issued at 0520 UTC 19 Jan 2017
Updated at 0626 UTC 19 Jan 2017
Potential Impact None Slight Moderate High
Time0551Z 19/07Z 19/08Z 19/09Z 19/10Z 19/11Z 19/12Z 19/13Z 19/14Z 19/15Z 19/16Z 19/17Z 19/18Z 19/19Z
Type OBS PRVL PRVL PRVL
  [TEMP]  
PRVL
  [TEMP]  
PRVL
  [TEMP]  
PRVL
  [TEMP]  
PRVL PRVL PRVL PRVL PRVL PRVL PRVL
VIS 10 >6 >6 >6 >6 >6 >6 4 4 4 4 4 4 4
CIG 80 100 100 100
  [25]  
100
  [25]  
100
  [25]  
100
  [25]  
15 15 15 15 15 15 15
Cover OVC BKN BKN BKN
  [BKN]  
BKN
  [BKN]  
BKN
  [BKN]  
BKN
  [BKN]  
OVC OVC OVC OVC OVC OVC OVC
FltCat VFR VFR VFR VFR
  [MVFR]  
VFR
  [MVFR]  
VFR
  [MVFR]  
VFR
  [MVFR]  
MVFR MVFR MVFR MVFR MVFR MVFR MVFR
WX -RA VCSH VCSH VCSH
  [-SHRA]  
VCSH
  [-SHRA]  
VCSH
  [-SHRA]  
VCSH
  [-SHRA]  
RA BR RA BR RA BR RA BR RA BR RA BR RA BR
WDir 150 170 170 170
[170]
170
[170]
170
[170]
170
[170]
180 180 180 180 180 180 180
WSpd 6 7 7 7
  [7]  
7
  [7]  
7
  [7]  
7
  [7]  
12 12 12 12 12 12 12
WGst -- -- -- --
  [--]  
--
  [--]  
--
  [--]  
--
  [--]  
20 20 20 20 20 20 20

Raw TAF
KSAN 190520Z 1906/2012 17007KT P6SM VCSH FEW015 SCT025 BKN100
  TEMPO 1909/1913 -SHRA BKN025
  FM191300 18012G20KT 4SM RA BR SCT007 OVC015
  FM192100 26014KT P6SM -SHRA SCT015 BKN025
  FM200200 27007KT P6SM VCSH BKN025


Raw METAR
KSAN 190551Z 15006KT 10SM -RA FEW037 BKN080 OVC110 14/09 A3014 RMK AO2 SLP205 P0000 60000 T01390094 10156 20139 58013
KSAN 190451Z 00000KT 10SM -RA FEW037 SCT070 BKN110 14/09 A3016 RMK AO2 RAB20 SLP212 P0000 T01440094
KSAN 190351Z 35004KT 10SM FEW023 SCT029 BKN140 BKN220 15/08 A3017 RMK AO2 SLP217 T01500083
KSAN 190347Z 36004KT 10SM FEW023 SCT029 BKN140 BKN220 15/08 A3017 RMK AO2

METAR Board
Radar Display
Forecast Discussion

FOR SITUATIONAL AWARENESS. NOT TO BE USED FOR FLIGHT PLANNING PURPOSES.

Page loaded:  06:26 UTC  |   10:26 PM Pacific  |   11:26 PM Mountain  |   12:26 AM Central  |   01:26 AM Eastern

 

ADVISORIES

FORECASTS

FORECASTS

OBSERVATIONS

USER TOOLS

ABOUT US